Página principal
METAR-TAF:

METAR-TAF

Aeroportos :

Palma de Maiorca, Espanha

Aeroporto de Palma de Maiorca-Son Sant Joan

latitude: 39-33N, longitude: 002-44E, altura: 4 m

Observação actual do tempo

O boletim foi feito há 38 minutos, às 14:30 UTC
Vento 18 kt de oeste
Temperatura 16°C
Humidade 63%
Pressão 1021 hPa
Visibilidade 10 km ou mais
sem nuvens abaixo de 1500 metros e sem cumulonimbus

METAR: LEPA 161430Z 26018KT CAVOK 16/09 Q1021 NOSIG

Hora: 16:08 (15:08 UTC)

Previsão

O boletim foi feito há 4 horas e 8 minutos, às 11:00 UTC
Previsão válida de 16 às 12 UTC a 17 às 12 UTC
Vento 12 kt de oes-sudoeste
Visibilidade 10 km ou mais
Poucas nuvensa uma altura de 2500 ft
Temporariamente
de 16 às 12 UTC a 16 às 18 UTC
Vento 12 kt de oes-sudoeste com rajadas de 22 kt
Temporariamente
de 17 às 06 UTC a 17 às 12 UTC
Vento 20 kt de oes-noroeste com rajadas de 35 kt

TAF: LEPA 161100Z 1612/1712 24012KT 9999 FEW025 TX16/1613Z TN07/1707Z TEMPO 1612/1618 24012G22KT TEMPO 1706/1712 30020G35KT

Observações e previsões do tempo de mais de 4000 aeroportos (mensagens METAR e TAF).

As estações disponíveis são os pontos amarelos e vermelhos sobre o mapa.

Mova o rato sobre o mapa para ver o nome da estação.

Depois clique no ponto para visualizar as observações e previsões meteorológicas.

Para alterar o mapa : clique nos botões verdes com uma cruz preta para aumentar o zoom; no botão verde com uma pitada de zoom; ou nas setas verdes para mapas adjacentes.


METAR-TAF: